YBR weather

Brandon Municipal Airport
Brandon, Manitoba, Canada

Public forecast

Using degrees Celsius for public forecast. Weather courtesy of forecast.io.

METAR (pilot weather report)

Retrieved 2019/01/17 17:00 UTC (40 minutes ago):

CYBR 171700Z 25004KT 15SM FEW100 FEW250 M18/M22 A3021 RMK AC1CI2 AC TR SLP278

TAF (pilot weather forecast)

Retrieved 2019/01/17 12:39 UTC (5 hours ago):

TAF CYBR 171138Z 1712/1724 30005KT P6SM -SN OVC025 TEMPO 1712/1716 3SM -SN OVC020 FM171600 28012KT P6SM FEW020 BKN080 FM171900 28012KT P6SM SCT080 RMK NXT FCST BY 171800Z